sensor_id;sensor_type;location;lat;lon;timestamp;P1;durP1;ratioP1;P2;durP2;ratioP2
18072;SDS011;9161;47.348;9.648;2022-07-24T00:02:45;13.80;;;10.00;;
18072;SDS011;9161;47.348;9.648;2022-07-24T00:07:28;14.18;;;9.40;;
18072;SDS011;9161;47.348;9.648;2022-07-24T00:12:12;14.77;;;9.93;;
18072;SDS011;9161;47.348;9.648;2022-07-24T00:16:57;14.35;;;9.68;;
18072;SDS011;9161;47.348;9.648;2022-07-24T00:21:40;13.80;;;10.30;;
18072;SDS011;9161;47.348;9.648;2022-07-24T00:26:24;15.73;;;10.27;;
18072;SDS011;9161;47.348;9.648;2022-07-24T00:31:08;16.42;;;10.55;;
18072;SDS011;9161;47.348;9.648;2022-07-24T00:35:53;14.32;;;10.75;;
18072;SDS011;9161;47.348;9.648;2022-07-24T00:40:36;12.05;;;9.90;;
18072;SDS011;9161;47.348;9.648;2022-07-24T00:45:20;17.15;;;10.60;;
18072;SDS011;9161;47.348;9.648;2022-07-24T00:50:06;16.00;;;9.95;;
18072;SDS011;9161;47.348;9.648;2022-07-24T00:54:52;14.60;;;10.23;;
18072;SDS011;9161;47.348;9.648;2022-07-24T00:59:35;11.90;;;9.63;;
18072;SDS011;9161;47.348;9.648;2022-07-24T01:04:19;18.02;;;9.70;;
18072;SDS011;9161;47.348;9.648;2022-07-24T01:09:04;15.20;;;10.27;;
18072;SDS011;9161;47.348;9.648;2022-07-24T01:13:50;14.73;;;10.73;;
18072;SDS011;9161;47.348;9.648;2022-07-24T01:18:33;13.75;;;10.02;;
18072;SDS011;9161;47.348;9.648;2022-07-24T01:23:19;15.55;;;10.90;;
18072;SDS011;9161;47.348;9.648;2022-07-24T01:28:02;16.35;;;10.05;;
18072;SDS011;9161;47.348;9.648;2022-07-24T01:32:46;13.82;;;10.85;;
18072;SDS011;9161;47.348;9.648;2022-07-24T01:37:29;13.18;;;10.10;;
18072;SDS011;9161;47.348;9.648;2022-07-24T01:42:14;16.75;;;11.68;;
18072;SDS011;9161;47.348;9.648;2022-07-24T01:46:58;16.95;;;11.93;;
18072;SDS011;9161;47.348;9.648;2022-07-24T01:51:41;12.75;;;10.40;;
18072;SDS011;9161;47.348;9.648;2022-07-24T01:56:25;14.20;;;9.77;;
18072;SDS011;9161;47.348;9.648;2022-07-24T02:01:11;15.90;;;10.10;;
18072;SDS011;9161;47.348;9.648;2022-07-24T02:05:55;13.93;;;9.63;;
18072;SDS011;9161;47.348;9.648;2022-07-24T02:10:38;16.85;;;10.50;;
18072;SDS011;9161;47.348;9.648;2022-07-24T02:15:22;14.30;;;9.18;;
18072;SDS011;9161;47.348;9.648;2022-07-24T02:20:08;10.80;;;9.07;;
18072;SDS011;9161;47.348;9.648;2022-07-24T02:24:52;14.93;;;9.93;;
18072;SDS011;9161;47.348;9.648;2022-07-24T02:29:36;14.75;;;9.77;;
18072;SDS011;9161;47.348;9.648;2022-07-24T02:34:21;13.88;;;10.10;;
18072;SDS011;9161;47.348;9.648;2022-07-24T02:39:06;14.48;;;10.73;;
18072;SDS011;9161;47.348;9.648;2022-07-24T02:43:49;13.30;;;9.73;;
18072;SDS011;9161;47.348;9.648;2022-07-24T02:48:33;15.40;;;10.00;;
18072;SDS011;9161;47.348;9.648;2022-07-24T02:53:16;14.93;;;9.35;;
18072;SDS011;9161;47.348;9.648;2022-07-24T02:58:01;14.55;;;9.50;;
18072;SDS011;9161;47.348;9.648;2022-07-24T03:02:45;13.63;;;9.43;;
18072;SDS011;9161;47.348;9.648;2022-07-24T03:07:28;14.88;;;10.50;;
18072;SDS011;9161;47.348;9.648;2022-07-24T03:12:12;14.05;;;10.65;;
18072;SDS011;9161;47.348;9.648;2022-07-24T03:16:57;15.95;;;9.98;;
18072;SDS011;9161;47.348;9.648;2022-07-24T03:21:40;15.05;;;11.00;;
18072;SDS011;9161;47.348;9.648;2022-07-24T03:26:29;12.90;;;10.50;;
18072;SDS011;9161;47.348;9.648;2022-07-24T03:31:12;16.70;;;10.60;;
18072;SDS011;9161;47.348;9.648;2022-07-24T03:35:57;16.35;;;10.88;;
18072;SDS011;9161;47.348;9.648;2022-07-24T03:40:41;15.32;;;10.25;;
18072;SDS011;9161;47.348;9.648;2022-07-24T03:45:26;12.33;;;9.73;;
18072;SDS011;9161;47.348;9.648;2022-07-24T03:50:37;13.60;;;10.53;;
18072;SDS011;9161;47.348;9.648;2022-07-24T03:55:23;12.07;;;9.23;;
18072;SDS011;9161;47.348;9.648;2022-07-24T04:00:07;14.77;;;10.02;;
18072;SDS011;9161;47.348;9.648;2022-07-24T04:04:52;12.80;;;10.00;;
18072;SDS011;9161;47.348;9.648;2022-07-24T04:09:36;15.73;;;9.93;;
18072;SDS011;9161;47.348;9.648;2022-07-24T04:14:20;16.13;;;9.98;;
18072;SDS011;9161;47.348;9.648;2022-07-24T04:19:04;13.73;;;10.02;;
18072;SDS011;9161;47.348;9.648;2022-07-24T04:23:48;12.15;;;9.82;;
18072;SDS011;9161;47.348;9.648;2022-07-24T04:28:31;14.55;;;10.63;;
18072;SDS011;9161;47.348;9.648;2022-07-24T04:33:16;18.05;;;10.00;;
18072;SDS011;9161;47.348;9.648;2022-07-24T04:38:00;14.95;;;10.30;;
18072;SDS011;9161;47.348;9.648;2022-07-24T04:42:44;15.82;;;10.90;;
18072;SDS011;9161;47.348;9.648;2022-07-24T04:47:27;14.77;;;10.93;;
18072;SDS011;9161;47.348;9.648;2022-07-24T04:52:12;13.85;;;10.98;;
18072;SDS011;9161;47.348;9.648;2022-07-24T04:56:55;14.20;;;9.68;;
18072;SDS011;9161;47.348;9.648;2022-07-24T05:01:39;16.48;;;10.82;;
18072;SDS011;9161;47.348;9.648;2022-07-24T05:06:28;14.43;;;10.55;;
18072;SDS011;9161;47.348;9.648;2022-07-24T05:11:13;16.00;;;10.30;;
18072;SDS011;9161;47.348;9.648;2022-07-24T05:15:57;13.48;;;10.35;;
18072;SDS011;9161;47.348;9.648;2022-07-24T05:20:40;13.88;;;9.68;;
18072;SDS011;9161;47.348;9.648;2022-07-24T05:25:24;16.00;;;10.20;;
18072;SDS011;9161;47.348;9.648;2022-07-24T05:30:10;13.80;;;10.07;;
18072;SDS011;9161;47.348;9.648;2022-07-24T05:34:54;12.45;;;9.15;;
18072;SDS011;9161;47.348;9.648;2022-07-24T05:39:37;11.60;;;9.35;;
18072;SDS011;9161;47.348;9.648;2022-07-24T05:44:21;12.15;;;9.23;;
18072;SDS011;9161;47.348;9.648;2022-07-24T05:49:06;12.45;;;9.18;;
18072;SDS011;9161;47.348;9.648;2022-07-24T05:53:50;12.25;;;8.82;;
18072;SDS011;9161;47.348;9.648;2022-07-24T05:58:34;14.85;;;10.18;;
18072;SDS011;9161;47.348;9.648;2022-07-24T06:03:18;13.77;;;9.75;;
18072;SDS011;9161;47.348;9.648;2022-07-24T06:08:03;10.95;;;9.23;;
18072;SDS011;9161;47.348;9.648;2022-07-24T06:12:47;13.32;;;10.55;;
18072;SDS011;9161;47.348;9.648;2022-07-24T06:17:31;12.45;;;9.80;;
18072;SDS011;9161;47.348;9.648;2022-07-24T06:22:15;12.35;;;9.50;;
18072;SDS011;9161;47.348;9.648;2022-07-24T06:27:00;13.05;;;10.50;;
18072;SDS011;9161;47.348;9.648;2022-07-24T06:31:53;15.85;;;10.65;;
18072;SDS011;9161;47.348;9.648;2022-07-24T06:36:37;14.52;;;10.88;;
18072;SDS011;9161;47.348;9.648;2022-07-24T06:41:20;14.23;;;10.80;;
18072;SDS011;9161;47.348;9.648;2022-07-24T06:46:05;12.63;;;10.50;;
18072;SDS011;9161;47.348;9.648;2022-07-24T06:50:49;11.05;;;9.35;;
18072;SDS011;9161;47.348;9.648;2022-07-24T06:55:32;13.15;;;9.57;;
18072;SDS011;9161;47.348;9.648;2022-07-24T07:00:16;14.30;;;10.27;;
18072;SDS011;9161;47.348;9.648;2022-07-24T07:05:01;12.63;;;9.25;;
18072;SDS011;9161;47.348;9.648;2022-07-24T07:09:46;11.23;;;9.13;;
18072;SDS011;9161;47.348;9.648;2022-07-24T07:14:29;12.93;;;9.70;;
18072;SDS011;9161;47.348;9.648;2022-07-24T07:19:13;12.25;;;9.68;;
18072;SDS011;9161;47.348;9.648;2022-07-24T07:23:58;11.93;;;9.63;;
18072;SDS011;9161;47.348;9.648;2022-07-24T07:28:42;14.20;;;9.43;;
18072;SDS011;9161;47.348;9.648;2022-07-24T07:33:25;13.48;;;9.57;;
18072;SDS011;9161;47.348;9.648;2022-07-24T07:38:09;11.75;;;9.57;;
18072;SDS011;9161;47.348;9.648;2022-07-24T07:42:54;11.27;;;9.50;;
18072;SDS011;9161;47.348;9.648;2022-07-24T07:47:38;10.52;;;9.43;;
18072;SDS011;9161;47.348;9.648;2022-07-24T07:52:21;13.65;;;9.07;;
18072;SDS011;9161;47.348;9.648;2022-07-24T07:57:05;12.38;;;9.40;;
18072;SDS011;9161;47.348;9.648;2022-07-24T08:01:50;11.25;;;9.10;;
18072;SDS011;9161;47.348;9.648;2022-07-24T08:06:34;12.75;;;9.43;;
18072;SDS011;9161;47.348;9.648;2022-07-24T08:11:17;13.27;;;9.48;;
18072;SDS011;9161;47.348;9.648;2022-07-24T08:16:01;10.50;;;8.57;;
18072;SDS011;9161;47.348;9.648;2022-07-24T08:20:47;16.85;;;8.85;;
18072;SDS011;9161;47.348;9.648;2022-07-24T08:25:31;9.73;;;8.13;;
18072;SDS011;9161;47.348;9.648;2022-07-24T08:30:14;10.75;;;9.02;;
18072;SDS011;9161;47.348;9.648;2022-07-24T08:34:58;14.13;;;9.25;;
18072;SDS011;9161;47.348;9.648;2022-07-24T08:39:43;12.15;;;9.73;;
18072;SDS011;9161;47.348;9.648;2022-07-24T08:44:27;11.30;;;8.30;;
18072;SDS011;9161;47.348;9.648;2022-07-24T08:49:11;10.30;;;8.90;;
18072;SDS011;9161;47.348;9.648;2022-07-24T08:53:55;10.77;;;9.15;;
18072;SDS011;9161;47.348;9.648;2022-07-24T08:58:41;10.80;;;8.60;;
18072;SDS011;9161;47.348;9.648;2022-07-24T09:03:25;10.77;;;8.85;;
18072;SDS011;9161;47.348;9.648;2022-07-24T09:08:08;10.05;;;9.05;;
18072;SDS011;9161;47.348;9.648;2022-07-24T09:12:53;12.88;;;8.63;;
18072;SDS011;9161;47.348;9.648;2022-07-24T09:17:47;12.45;;;9.32;;
18072;SDS011;9161;47.348;9.648;2022-07-24T09:22:33;10.05;;;8.88;;
18072;SDS011;9161;47.348;9.648;2022-07-24T09:27:17;11.05;;;9.07;;
18072;SDS011;9161;47.348;9.648;2022-07-24T09:32:01;10.30;;;9.23;;
18072;SDS011;9161;47.348;9.648;2022-07-24T09:36:55;11.73;;;8.93;;
18072;SDS011;9161;47.348;9.648;2022-07-24T09:41:49;9.68;;;8.45;;
18072;SDS011;9161;47.348;9.648;2022-07-24T09:46:36;9.50;;;8.50;;
18072;SDS011;9161;47.348;9.648;2022-07-24T09:51:20;10.10;;;8.75;;
18072;SDS011;9161;47.348;9.648;2022-07-24T09:56:06;11.23;;;8.50;;
18072;SDS011;9161;47.348;9.648;2022-07-24T10:00:52;9.13;;;8.00;;
18072;SDS011;9161;47.348;9.648;2022-07-24T10:05:38;10.85;;;7.55;;
18072;SDS011;9161;47.348;9.648;2022-07-24T10:10:25;10.38;;;8.18;;
18072;SDS011;9161;47.348;9.648;2022-07-24T10:15:13;9.13;;;8.13;;
18072;SDS011;9161;47.348;9.648;2022-07-24T10:19:57;9.60;;;8.57;;
18072;SDS011;9161;47.348;9.648;2022-07-24T10:25:07;10.82;;;8.40;;
18072;SDS011;9161;47.348;9.648;2022-07-24T10:29:56;11.80;;;8.73;;
18072;SDS011;9161;47.348;9.648;2022-07-24T10:34:45;11.55;;;9.05;;
18072;SDS011;9161;47.348;9.648;2022-07-24T10:39:34;11.15;;;8.50;;
18072;SDS011;9161;47.348;9.648;2022-07-24T10:44:21;9.73;;;8.70;;
18072;SDS011;9161;47.348;9.648;2022-07-24T10:49:05;11.68;;;9.07;;
18072;SDS011;9161;47.348;9.648;2022-07-24T10:53:52;10.00;;;9.00;;
18072;SDS011;9161;47.348;9.648;2022-07-24T10:58:49;9.77;;;8.48;;
18072;SDS011;9161;47.348;9.648;2022-07-24T11:03:45;9.45;;;8.50;;
18072;SDS011;9161;47.348;9.648;2022-07-24T11:08:37;9.10;;;8.30;;
18072;SDS011;9161;47.348;9.648;2022-07-24T11:18:40;9.70;;;8.60;;
18072;SDS011;9161;47.348;9.648;2022-07-24T11:23:30;11.48;;;9.50;;
18072;SDS011;9161;47.348;9.648;2022-07-24T11:28:14;20.58;;;8.88;;
18072;SDS011;9161;47.348;9.648;2022-07-24T11:32:59;10.15;;;8.30;;
18072;SDS011;9161;47.348;9.648;2022-07-24T11:37:43;10.43;;;8.13;;
18072;SDS011;9161;47.348;9.648;2022-07-24T11:42:28;9.40;;;8.20;;
18072;SDS011;9161;47.348;9.648;2022-07-24T11:47:12;11.20;;;8.25;;
18072;SDS011;9161;47.348;9.648;2022-07-24T11:51:59;12.52;;;11.25;;
18072;SDS011;9161;47.348;9.648;2022-07-24T11:56:42;9.43;;;8.52;;
18072;SDS011;9161;47.348;9.648;2022-07-24T12:01:26;9.35;;;8.32;;
18072;SDS011;9161;47.348;9.648;2022-07-24T12:06:11;8.88;;;8.10;;
18072;SDS011;9161;47.348;9.648;2022-07-24T12:10:58;10.57;;;8.43;;
18072;SDS011;9161;47.348;9.648;2022-07-24T12:15:43;11.85;;;8.02;;
18072;SDS011;9161;47.348;9.648;2022-07-24T12:20:28;9.25;;;7.72;;
18072;SDS011;9161;47.348;9.648;2022-07-24T12:25:13;10.43;;;7.70;;
18072;SDS011;9161;47.348;9.648;2022-07-24T12:29:58;9.77;;;8.52;;
18072;SDS011;9161;47.348;9.648;2022-07-24T12:34:49;8.80;;;7.90;;
18072;SDS011;9161;47.348;9.648;2022-07-24T12:39:52;8.88;;;8.00;;
18072;SDS011;9161;47.348;9.648;2022-07-24T12:44:40;12.93;;;8.10;;
18072;SDS011;9161;47.348;9.648;2022-07-24T12:49:27;9.38;;;8.40;;
18072;SDS011;9161;47.348;9.648;2022-07-24T12:54:23;8.68;;;7.80;;
18072;SDS011;9161;47.348;9.648;2022-07-24T12:59:09;8.70;;;7.82;;
18072;SDS011;9161;47.348;9.648;2022-07-24T13:04:03;9.15;;;8.25;;
18072;SDS011;9161;47.348;9.648;2022-07-24T13:08:49;9.52;;;8.63;;
18072;SDS011;9161;47.348;9.648;2022-07-24T13:13:32;8.88;;;7.80;;
18072;SDS011;9161;47.348;9.648;2022-07-24T13:18:16;10.05;;;8.27;;
18072;SDS011;9161;47.348;9.648;2022-07-24T13:23:00;8.38;;;7.53;;
18072;SDS011;9161;47.348;9.648;2022-07-24T13:27:45;9.77;;;8.23;;
18072;SDS011;9161;47.348;9.648;2022-07-24T13:32:49;7.95;;;7.28;;
18072;SDS011;9161;47.348;9.648;2022-07-24T13:37:32;8.48;;;7.68;;
18072;SDS011;9161;47.348;9.648;2022-07-24T13:42:16;8.15;;;7.35;;
18072;SDS011;9161;47.348;9.648;2022-07-24T13:47:01;8.60;;;7.80;;
18072;SDS011;9161;47.348;9.648;2022-07-24T13:51:45;9.25;;;7.68;;
18072;SDS011;9161;47.348;9.648;2022-07-24T13:56:29;8.27;;;7.47;;
18072;SDS011;9161;47.348;9.648;2022-07-24T14:01:14;9.35;;;7.65;;
18072;SDS011;9161;47.348;9.648;2022-07-24T14:06:00;8.35;;;7.60;;
18072;SDS011;9161;47.348;9.648;2022-07-24T14:10:44;9.05;;;8.25;;
18072;SDS011;9161;47.348;9.648;2022-07-24T14:15:27;8.95;;;8.05;;
18072;SDS011;9161;47.348;9.648;2022-07-24T14:20:12;7.68;;;6.97;;
18072;SDS011;9161;47.348;9.648;2022-07-24T14:24:57;7.40;;;6.70;;
18072;SDS011;9161;47.348;9.648;2022-07-24T14:29:43;10.77;;;8.52;;
18072;SDS011;9161;47.348;9.648;2022-07-24T14:34:26;7.05;;;6.45;;
18072;SDS011;9161;47.348;9.648;2022-07-24T14:39:10;7.57;;;6.80;;
18072;SDS011;9161;47.348;9.648;2022-07-24T14:43:55;9.98;;;7.25;;
18072;SDS011;9161;47.348;9.648;2022-07-24T14:48:46;8.27;;;6.88;;
18072;SDS011;9161;47.348;9.648;2022-07-24T14:53:30;6.97;;;6.35;;
18072;SDS011;9161;47.348;9.648;2022-07-24T14:58:14;6.88;;;6.25;;
18072;SDS011;9161;47.348;9.648;2022-07-24T15:02:59;8.23;;;5.85;;
18072;SDS011;9161;47.348;9.648;2022-07-24T15:07:42;6.40;;;5.82;;
18072;SDS011;9161;47.348;9.648;2022-07-24T15:12:26;7.20;;;6.25;;
18072;SDS011;9161;47.348;9.648;2022-07-24T15:17:10;9.40;;;6.55;;
18072;SDS011;9161;47.348;9.648;2022-07-24T15:21:55;10.63;;;6.57;;
18072;SDS011;9161;47.348;9.648;2022-07-24T15:26:38;14.73;;;6.88;;
18072;SDS011;9161;47.348;9.648;2022-07-24T15:31:22;10.75;;;6.10;;
18072;SDS011;9161;47.348;9.648;2022-07-24T15:36:07;7.47;;;6.57;;
18072;SDS011;9161;47.348;9.648;2022-07-24T15:40:53;8.73;;;6.10;;
18072;SDS011;9161;47.348;9.648;2022-07-24T15:45:38;11.25;;;7.85;;
18072;SDS011;9161;47.348;9.648;2022-07-24T15:50:22;7.28;;;6.55;;
18072;SDS011;9161;47.348;9.648;2022-07-24T15:55:06;10.95;;;6.82;;
18072;SDS011;9161;47.348;9.648;2022-07-24T15:59:51;8.02;;;7.03;;
18072;SDS011;9161;47.348;9.648;2022-07-24T16:04:35;7.45;;;6.72;;
18072;SDS011;9161;47.348;9.648;2022-07-24T16:09:19;9.63;;;6.97;;
18072;SDS011;9161;47.348;9.648;2022-07-24T16:14:03;7.68;;;6.97;;
18072;SDS011;9161;47.348;9.648;2022-07-24T16:18:48;7.45;;;6.65;;
18072;SDS011;9161;47.348;9.648;2022-07-24T16:23:32;7.35;;;6.65;;
18072;SDS011;9161;47.348;9.648;2022-07-24T16:28:16;8.65;;;6.80;;
18072;SDS011;9161;47.348;9.648;2022-07-24T16:33:00;8.15;;;6.65;;
18072;SDS011;9161;47.348;9.648;2022-07-24T16:38:05;8.68;;;6.85;;
18072;SDS011;9161;47.348;9.648;2022-07-24T16:42:48;8.77;;;7.82;;
18072;SDS011;9161;47.348;9.648;2022-07-24T16:47:33;8.27;;;7.45;;
18072;SDS011;9161;47.348;9.648;2022-07-24T16:52:17;10.00;;;7.38;;
18072;SDS011;9161;47.348;9.648;2022-07-24T16:57:22;8.75;;;7.00;;
18072;SDS011;9161;47.348;9.648;2022-07-24T17:02:05;8.50;;;7.63;;
18072;SDS011;9161;47.348;9.648;2022-07-24T17:06:49;7.95;;;7.15;;
18072;SDS011;9161;47.348;9.648;2022-07-24T17:11:33;10.93;;;7.47;;
18072;SDS011;9161;47.348;9.648;2022-07-24T17:16:18;7.78;;;7.00;;
18072;SDS011;9161;47.348;9.648;2022-07-24T17:21:03;11.35;;;7.43;;
18072;SDS011;9161;47.348;9.648;2022-07-24T17:25:46;11.43;;;7.40;;
18072;SDS011;9161;47.348;9.648;2022-07-24T17:30:30;8.88;;;7.10;;
18072;SDS011;9161;47.348;9.648;2022-07-24T17:35:16;9.32;;;7.72;;
18072;SDS011;9161;47.348;9.648;2022-07-24T17:40:00;8.50;;;7.68;;
18072;SDS011;9161;47.348;9.648;2022-07-24T17:44:43;8.82;;;7.03;;
18072;SDS011;9161;47.348;9.648;2022-07-24T17:49:27;8.30;;;7.40;;
18072;SDS011;9161;47.348;9.648;2022-07-24T17:54:12;9.38;;;7.35;;
18072;SDS011;9161;47.348;9.648;2022-07-24T17:58:55;9.18;;;7.47;;
18072;SDS011;9161;47.348;9.648;2022-07-24T18:03:39;8.48;;;7.43;;
18072;SDS011;9161;47.348;9.648;2022-07-24T18:08:23;8.77;;;7.38;;
18072;SDS011;9161;47.348;9.648;2022-07-24T18:13:08;15.02;;;7.88;;
18072;SDS011;9161;47.348;9.648;2022-07-24T18:17:57;10.40;;;7.80;;
18072;SDS011;9161;47.348;9.648;2022-07-24T18:22:40;10.93;;;7.68;;
18072;SDS011;9161;47.348;9.648;2022-07-24T18:27:24;11.30;;;7.75;;
18072;SDS011;9161;47.348;9.648;2022-07-24T18:32:11;17.35;;;7.82;;
18072;SDS011;9161;47.348;9.648;2022-07-24T18:36:55;10.07;;;7.05;;
18072;SDS011;9161;47.348;9.648;2022-07-24T18:41:45;16.08;;;8.57;;
18072;SDS011;9161;47.348;9.648;2022-07-24T18:46:29;8.32;;;7.43;;
18072;SDS011;9161;47.348;9.648;2022-07-24T18:51:17;8.90;;;7.90;;
18072;SDS011;9161;47.348;9.648;2022-07-24T18:56:06;9.02;;;7.32;;
18072;SDS011;9161;47.348;9.648;2022-07-24T19:00:50;12.82;;;7.82;;
18072;SDS011;9161;47.348;9.648;2022-07-24T19:05:34;10.88;;;7.80;;
18072;SDS011;9161;47.348;9.648;2022-07-24T19:10:23;17.73;;;8.50;;
18072;SDS011;9161;47.348;9.648;2022-07-24T19:15:07;9.70;;;7.80;;
18072;SDS011;9161;47.348;9.648;2022-07-24T19:19:51;12.20;;;8.10;;
18072;SDS011;9161;47.348;9.648;2022-07-24T19:24:35;11.52;;;8.32;;
18072;SDS011;9161;47.348;9.648;2022-07-24T19:29:41;16.55;;;8.48;;
18072;SDS011;9161;47.348;9.648;2022-07-24T19:34:27;13.63;;;8.50;;
18072;SDS011;9161;47.348;9.648;2022-07-24T19:39:11;12.90;;;8.75;;
18072;SDS011;9161;47.348;9.648;2022-07-24T19:43:55;14.05;;;8.57;;
18072;SDS011;9161;47.348;9.648;2022-07-24T19:48:40;12.48;;;8.57;;
18072;SDS011;9161;47.348;9.648;2022-07-24T19:53:26;9.55;;;7.75;;
18072;SDS011;9161;47.348;9.648;2022-07-24T19:58:10;12.77;;;8.38;;
18072;SDS011;9161;47.348;9.648;2022-07-24T20:02:53;15.20;;;10.13;;
18072;SDS011;9161;47.348;9.648;2022-07-24T20:07:41;11.35;;;9.15;;
18072;SDS011;9161;47.348;9.648;2022-07-24T20:12:25;14.73;;;9.30;;
18072;SDS011;9161;47.348;9.648;2022-07-24T20:17:09;15.63;;;9.30;;
18072;SDS011;9161;47.348;9.648;2022-07-24T20:21:52;13.55;;;8.65;;
18072;SDS011;9161;47.348;9.648;2022-07-24T20:26:37;14.93;;;9.35;;
18072;SDS011;9161;47.348;9.648;2022-07-24T20:31:21;12.45;;;9.55;;
18072;SDS011;9161;47.348;9.648;2022-07-24T20:36:13;15.75;;;11.50;;
18072;SDS011;9161;47.348;9.648;2022-07-24T20:41:15;14.52;;;11.13;;
18072;SDS011;9161;47.348;9.648;2022-07-24T20:46:00;15.95;;;10.45;;
18072;SDS011;9161;47.348;9.648;2022-07-24T20:50:44;14.60;;;9.90;;
18072;SDS011;9161;47.348;9.648;2022-07-24T20:55:27;16.77;;;11.52;;
18072;SDS011;9161;47.348;9.648;2022-07-24T21:00:11;13.18;;;10.95;;
18072;SDS011;9161;47.348;9.648;2022-07-24T21:04:56;16.67;;;10.85;;
18072;SDS011;9161;47.348;9.648;2022-07-24T21:09:40;16.20;;;10.38;;
18072;SDS011;9161;47.348;9.648;2022-07-24T21:14:24;13.57;;;10.45;;
18072;SDS011;9161;47.348;9.648;2022-07-24T21:19:07;16.08;;;10.55;;
18072;SDS011;9161;47.348;9.648;2022-07-24T21:23:52;15.55;;;10.38;;
18072;SDS011;9161;47.348;9.648;2022-07-24T21:28:36;13.57;;;10.50;;
18072;SDS011;9161;47.348;9.648;2022-07-24T21:33:20;14.10;;;10.20;;
18072;SDS011;9161;47.348;9.648;2022-07-24T21:38:04;13.77;;;10.02;;
18072;SDS011;9161;47.348;9.648;2022-07-24T21:42:49;16.65;;;9.55;;
18072;SDS011;9161;47.348;9.648;2022-07-24T21:47:32;13.95;;;10.10;;
18072;SDS011;9161;47.348;9.648;2022-07-24T21:52:17;13.02;;;9.88;;
18072;SDS011;9161;47.348;9.648;2022-07-24T21:57:00;14.00;;;9.75;;
18072;SDS011;9161;47.348;9.648;2022-07-24T22:01:45;13.75;;;9.98;;
18072;SDS011;9161;47.348;9.648;2022-07-24T22:06:29;13.48;;;10.07;;
18072;SDS011;9161;47.348;9.648;2022-07-24T22:11:12;13.70;;;10.57;;
18072;SDS011;9161;47.348;9.648;2022-07-24T22:15:56;14.00;;;10.18;;
18072;SDS011;9161;47.348;9.648;2022-07-24T22:20:41;13.43;;;10.45;;
18072;SDS011;9161;47.348;9.648;2022-07-24T22:25:25;14.25;;;10.30;;
18072;SDS011;9161;47.348;9.648;2022-07-24T22:30:09;16.40;;;11.13;;
18072;SDS011;9161;47.348;9.648;2022-07-24T22:34:54;13.98;;;10.55;;
18072;SDS011;9161;47.348;9.648;2022-07-24T22:39:39;12.48;;;10.50;;
18072;SDS011;9161;47.348;9.648;2022-07-24T22:44:23;14.00;;;10.80;;
18072;SDS011;9161;47.348;9.648;2022-07-24T22:49:06;14.27;;;10.90;;
18072;SDS011;9161;47.348;9.648;2022-07-24T22:53:58;14.52;;;9.82;;
18072;SDS011;9161;47.348;9.648;2022-07-24T22:58:43;13.77;;;10.55;;
18072;SDS011;9161;47.348;9.648;2022-07-24T23:03:29;12.73;;;10.38;;
18072;SDS011;9161;47.348;9.648;2022-07-24T23:08:12;16.70;;;10.35;;
18072;SDS011;9161;47.348;9.648;2022-07-24T23:12:56;14.35;;;10.93;;
18072;SDS011;9161;47.348;9.648;2022-07-24T23:17:49;14.63;;;11.00;;
18072;SDS011;9161;47.348;9.648;2022-07-24T23:22:32;14.15;;;10.63;;
18072;SDS011;9161;47.348;9.648;2022-07-24T23:27:16;15.93;;;10.80;;
18072;SDS011;9161;47.348;9.648;2022-07-24T23:31:59;15.70;;;10.40;;
18072;SDS011;9161;47.348;9.648;2022-07-24T23:36:44;12.52;;;10.32;;
18072;SDS011;9161;47.348;9.648;2022-07-24T23:41:28;14.43;;;10.38;;
18072;SDS011;9161;47.348;9.648;2022-07-24T23:46:12;13.48;;;10.27;;
18072;SDS011;9161;47.348;9.648;2022-07-24T23:50:55;20.90;;;9.60;;
18072;SDS011;9161;47.348;9.648;2022-07-24T23:55:42;15.63;;;9.70;;
